Time;durP1;ratioP1;P1;durP2;ratioP2;P2;SDS_P1;SDS_P2;PMS_P1;PMS_P2;Temp;Humidity;BMP_temperature;BMP_pressure;BME280_temperature;BME280_humidity;BME280_pressure;Samples;Min_cycle;Max_cycle;Signal;HPM_P1;HPM_P2
2022/01/12 00:00:17;;;;;;;;;54.20;44.60;;;;;5.86;60.46;103050.78;2096944;28;48641;-67
2022/01/12 00:01:19;;;;;;;;;53.60;42.00;;;;;5.88;59.99;103054.34;2087230;28;46513;-68
2022/01/12 00:02:20;;;;;;;;;52.40;42.80;;;;;5.87;60.30;103052.56;2087826;28;47218;-68
2022/01/12 00:03:20;;;;;;;;;56.25;44.00;;;;;5.86;60.87;103051.66;2096915;28;46512;-67
2022/01/12 00:04:21;;;;;;;;;55.75;44.25;;;;;5.85;60.59;103047.25;2096877;28;47892;-68
2022/01/12 00:05:22;;;;;;;;;49.00;42.00;;;;;5.85;60.69;103051.63;2096740;28;48283;-66
2022/01/12 00:06:24;;;;;;;;;53.75;44.25;;;;;5.85;60.52;103052.50;2096638;28;47651;-67
2022/01/12 00:07:24;;;;;;;;;53.40;42.40;;;;;5.85;60.44;103051.63;2096855;28;45548;-67
2022/01/12 00:08:25;;;;;;;;;51.75;42.75;;;;;5.85;60.73;103049.88;2097187;28;46266;-72
2022/01/12 00:09:26;;;;;;;;;51.00;41.00;;;;;5.86;60.83;103053.41;2079685;28;46023;-67
2022/01/12 00:10:27;;;;;;;;;58.25;47.50;;;;;5.86;60.55;103050.78;2082888;28;46638;-69
2022/01/12 00:11:27;;;;;;;;;54.25;43.25;;;;;5.86;60.84;103042.88;2096895;28;45404;-66
2022/01/12 00:12:28;;;;;;;;;59.75;46.25;;;;;5.87;60.89;103042.03;2096958;27;46735;-69
2022/01/12 00:13:29;;;;;;;;;54.25;44.25;;;;;5.87;60.35;103042.03;2096886;28;47250;-70
2022/01/12 00:14:30;;;;;;;;;52.40;43.40;;;;;5.86;60.63;103041.13;2096386;28;47967;-67
2022/01/12 00:15:30;;;;;;;;;51.50;42.75;;;;;5.87;60.69;103039.38;2095717;27;45995;-71
2022/01/12 00:16:32;;;;;;;;;54.25;44.50;;;;;5.87;60.36;103036.75;2088148;28;45592;-71
2022/01/12 00:17:33;;;;;;;;;54.20;43.00;;;;;5.86;60.58;103035.84;2093051;28;46957;-68
2022/01/12 00:18:33;;;;;;;;;53.00;40.75;;;;;5.86;60.33;103038.50;2100826;27;46108;-71
2022/01/12 00:19:34;;;;;;;;;57.25;45.00;;;;;5.86;60.43;103027.94;2104952;27;46894;-70
2022/01/12 00:20:34;;;;;;;;;55.00;45.50;;;;;5.87;60.77;103037.66;2096378;28;45436;-69
2022/01/12 00:21:35;;;;;;;;;56.25;45.75;;;;;5.87;60.79;103034.13;2095688;28;46473;-68
2022/01/12 00:22:37;;;;;;;;;58.00;47.75;;;;;5.86;60.71;103035.84;2105178;27;47827;-68
2022/01/12 00:23:40;;;;;;;;;55.60;44.00;;;;;5.87;60.50;103035.00;2104899;27;48620;-70
2022/01/12 00:33:32;;;;;;;;;47.60;40.60;;;;;5.90;60.39;103063.25;2104901;27;45547;-66
2022/01/12 00:34:33;;;;;;;;;58.75;47.25;;;;;5.89;60.99;103064.06;2096196;28;48054;-69
2022/01/12 00:35:34;;;;;;;;;56.25;43.75;;;;;5.90;60.40;103063.25;2095455;28;47165;-65
2022/01/12 00:36:36;;;;;;;;;53.20;46.00;;;;;5.90;60.84;103065.88;2105076;27;46992;-71
2022/01/12 00:37:37;;;;;;;;;54.00;42.60;;;;;5.89;60.45;103059.66;2095758;27;45513;-66
2022/01/12 00:38:37;;;;;;;;;54.00;43.00;;;;;5.89;60.46;103062.31;2096205;28;46511;-68
2022/01/12 00:39:38;;;;;;;;;58.25;44.50;;;;;5.90;60.92;103061.50;2103953;27;46742;-67
2022/01/12 00:40:41;;;;;;;;;56.50;45.50;;;;;5.90;60.65;103060.59;2104571;27;45379;-73
2022/01/12 00:41:42;;;;;;;;;54.80;45.00;;;;;5.90;60.77;103058.88;2104864;27;48691;-71
2022/01/12 00:42:43;;;;;;;;;51.25;39.50;;;;;5.90;60.75;103057.97;2105074;27;46328;-67
2022/01/12 00:43:47;;;;;;;;;49.75;39.50;;;;;5.89;60.96;103049.13;2104956;27;47421;-67
2022/01/12 00:44:48;;;;;;;;;54.60;45.20;;;;;5.89;60.55;103049.13;2095744;28;45674;-67
2022/01/12 00:45:49;;;;;;;;;54.25;42.25;;;;;5.90;60.94;103057.97;2095673;28;46878;-68
2022/01/12 00:46:52;;;;;;;;;57.25;46.75;;;;;5.89;60.74;103056.16;2102910;27;45980;-66
2022/01/12 00:47:53;;;;;;;;;55.60;43.20;;;;;5.89;60.86;103053.50;2100711;27;45709;-69
2022/01/12 00:48:55;;;;;;;;;55.50;45.00;;;;;5.90;60.53;103053.59;2105177;27;45414;-66
2022/01/12 00:49:56;;;;;;;;;54.20;44.00;;;;;5.89;60.51;103050.88;2087418;28;46267;-69
2022/01/12 00:50:59;;;;;;;;;58.00;47.00;;;;;5.89;60.86;103056.16;2087737;28;46602;-69
2022/01/12 00:51:59;;;;;;;;;59.80;48.00;;;;;5.90;60.35;103064.13;2104508;27;46739;-67
2022/01/12 00:53:00;;;;;;;;;52.50;42.75;;;;;5.89;60.97;103056.16;2104597;27;45808;-73
2022/01/12 00:54:03;;;;;;;;;52.50;42.25;;;;;5.90;60.98;103066.78;2104917;27;45394;-67
2022/01/12 00:55:04;;;;;;;;;58.20;48.20;;;;;5.90;60.69;103063.25;2105312;27;46493;-66
2022/01/12 00:56:07;;;;;;;;;60.00;47.00;;;;;5.90;60.59;103071.16;2104940;27;45812;-70
2022/01/12 00:57:07;;;;;;;;;53.80;44.20;;;;;5.90;60.51;103068.50;2104629;27;46393;-67
2022/01/12 00:58:08;;;;;;;;;51.00;44.25;;;;;5.89;60.74;103072.84;2104788;27;47178;-67
2022/01/12 00:59:08;;;;;;;;;52.00;44.50;;;;;5.91;60.45;103078.22;2095796;28;47255;-68
2022/01/12 01:00:09;;;;;;;;;48.00;40.50;;;;;5.89;60.73;103075.47;2095923;28;46269;-70
2022/01/12 01:01:10;;;;;;;;;51.80;43.00;;;;;5.90;60.88;103081.69;2103648;27;46203;-69
2022/01/12 01:02:11;;;;;;;;;58.75;45.75;;;;;5.90;60.52;103081.69;2104593;27;45289;-71
2022/01/12 01:03:11;;;;;;;;;57.75;44.25;;;;;5.92;60.98;103084.38;2104809;27;45310;-65
2022/01/12 01:04:12;;;;;;;;;52.75;43.50;;;;;5.90;60.24;103079.94;2096046;28;47992;-69
2022/01/12 01:05:14;;;;;;;;;55.00;44.00;;;;;5.91;60.50;103086.13;2095449;28;46192;-66
2022/01/12 01:06:16;;;;;;;;;58.20;45.40;;;;;5.92;60.99;103084.38;2104353;27;47134;-70
2022/01/12 01:07:17;;;;;;;;;59.60;45.00;;;;;5.93;60.96;103096.69;2100433;27;47135;-66
2022/01/12 01:08:18;;;;;;;;;53.20;42.60;;;;;5.91;60.81;103099.28;2095829;27;45448;-68
2022/01/12 01:09:19;;;;;;;;;55.75;43.00;;;;;5.94;60.69;103109.03;2096152;28;48166;-69
2022/01/12 01:10:43;;;;;;;;;47.00;39.50;;;;;5.94;60.72;103104.66;2105373;27;45438;-67
2022/01/12 01:11:44;;;;;;;;;58.00;47.40;;;;;5.93;60.76;103100.22;2095729;28;45533;-68
2022/01/12 01:12:46;;;;;;;;;54.00;43.50;;;;;5.94;60.47;103106.41;2087328;28;45354;-69
2022/01/12 01:13:57;;;;;;;;;51.20;42.40;;;;;5.93;60.49;103094.97;2087382;28;45496;-65
2022/01/12 01:15:10;;;;;;;;;52.80;43.00;;;;;5.94;60.67;103103.75;2097130;27;45637;-67
2022/01/12 01:16:18;;;;;;;;;60.40;47.00;;;;;5.93;60.84;103101.97;2095749;27;45736;-66
2022/01/12 01:25:51;;;;;;;;;50.80;42.00;;;;;5.88;60.74;103120.22;2104572;27;48791;-67
2022/01/12 01:26:44;;;;;;;;;55.40;45.20;;;;;5.86;60.96;103122.81;2099957;27;48208;-67
2022/01/12 01:27:45;;;;;;;;;51.00;42.75;;;;;5.87;60.94;103121.09;2104242;27;45895;-69
2022/01/12 01:28:45;;;;;;;;;53.50;43.50;;;;;5.86;61.10;103121.91;2104480;27;46977;-67
2022/01/12 01:29:47;;;;;;;;;53.00;42.00;;;;;5.86;61.35;103121.91;2103816;27;47924;-70
2022/01/12 01:30:48;;;;;;;;;52.40;43.00;;;;;5.85;60.84;103125.41;2099074;27;46498;-71
2022/01/12 01:31:48;;;;;;;;;55.75;47.00;;;;;5.86;60.97;103130.72;2104994;27;45420;-66
2022/01/12 01:32:49;;;;;;;;;58.25;46.00;;;;;5.86;61.17;103132.47;2095880;28;45835;-68
2022/01/12 01:33:50;;;;;;;;;54.25;43.00;;;;;5.84;60.91;103126.22;2096130;27;45527;-66
2022/01/12 01:34:51;;;;;;;;;58.25;48.50;;;;;5.82;61.10;103122.63;2106625;27;47046;-69
2022/01/12 01:35:56;;;;;;;;;52.40;42.60;;;;;5.81;60.60;103127.00;2096553;27;46080;-66
2022/01/12 01:36:57;;;;;;;;;56.40;45.60;;;;;5.81;60.84;103134.91;2103617;27;45572;-68
2022/01/12 01:38:00;;;;;;;;;57.25;47.50;;;;;5.80;61.34;103138.38;2107108;27;46387;-66
2022/01/12 01:39:01;;;;;;;;;55.80;44.40;;;;;5.79;61.29;103141.88;2104232;27;48243;-74
2022/01/12 01:40:01;;;;;;;;;52.75;42.50;;;;;5.79;60.65;103143.59;2102748;27;48679;-69
2022/01/12 01:41:02;;;;;;;;;57.75;44.25;;;;;5.78;60.89;103149.72;2091398;28;47715;-68
2022/01/12 01:42:12;;;;;;;;;57.00;46.75;;;;;5.77;60.92;103147.94;2099079;27;45758;-68
2022/01/12 01:53:27;;;;;;;;;55.40;41.40;;;;;5.71;61.30;103139.78;2104483;27;46063;-65
2022/01/12 01:54:27;;;;;;;;;55.60;46.80;;;;;5.70;61.45;103149.41;2104337;27;46687;-67
2022/01/12 01:55:30;;;;;;;;;53.00;42.25;;;;;5.71;61.17;103139.78;2104539;27;46553;-64
2022/01/12 01:56:31;;;;;;;;;56.40;42.20;;;;;5.71;61.38;103143.31;2095559;28;45413;-67
2022/01/12 01:57:32;;;;;;;;;53.00;41.60;;;;;5.71;61.36;103143.31;2099511;27;46596;-66
2022/01/12 01:58:33;;;;;;;;;50.40;42.60;;;;;5.71;61.59;103137.16;2097633;27;45491;-69
2022/01/12 01:59:34;;;;;;;;;57.00;45.00;;;;;5.71;61.34;103134.50;2101192;27;45400;-69
2022/01/12 02:00:37;;;;;;;;;53.50;43.00;;;;;5.71;60.86;103143.31;2104614;27;46256;-67
2022/01/12 02:01:38;;;;;;;;;53.60;43.40;;;;;5.70;61.13;103143.25;2096763;27;46327;-67
2022/01/12 02:02:39;;;;;;;;;54.00;43.25;;;;;5.69;61.00;103142.38;2102942;27;46665;-69
2022/01/12 02:03:41;;;;;;;;;48.60;38.80;;;;;5.70;61.12;103141.53;2099602;27;47176;-67
2022/01/12 02:04:42;;;;;;;;;34.60;22.20;;;;;5.69;61.35;103137.09;2099120;27;46578;-67
2022/01/12 02:05:43;;;;;;;;;53.00;42.00;;;;;5.70;61.42;103144.16;2104348;27;46950;-68
2022/01/12 02:06:43;;;;;;;;;62.80;48.80;;;;;5.69;61.42;103142.38;2104314;27;45365;-73
2022/01/12 02:07:44;;;;;;;;;51.75;42.00;;;;;5.68;61.21;103137.03;2095866;27;48289;-66
2022/01/12 02:08:45;;;;;;;;;55.00;45.50;;;;;5.68;61.02;103135.31;2095140;28;47325;-67
2022/01/12 02:09:45;;;;;;;;;49.00;42.80;;;;;5.69;61.13;103138.84;2095240;28;47489;-67
2022/01/12 02:10:46;;;;;;;;;57.75;45.00;;;;;5.69;61.31;103139.72;2095630;27;45738;-68
2022/01/12 02:11:52;;;;;;;;;56.50;46.50;;;;;5.67;61.17;103138.78;2086771;28;45662;-65
2022/01/12 02:12:52;;;;;;;;;59.40;47.00;;;;;5.68;61.00;103142.31;2080339;28;47262;-67
2022/01/12 02:13:54;;;;;;;;;52.50;42.75;;;;;5.68;61.04;103140.56;2091570;28;45871;-67
2022/01/12 02:14:56;;;;;;;;;51.60;43.40;;;;;5.68;61.67;103137.03;2103506;27;46532;-70
2022/01/12 02:15:58;;;;;;;;;57.80;45.80;;;;;5.67;61.68;103124.72;2103778;27;48073;-68
2022/01/12 02:17:09;;;;;;;;;57.20;46.60;;;;;5.67;61.57;103133.50;2094755;28;45511;-74
2022/01/12 02:35:54;;;;;;;;;54.40;44.40;;;;;5.56;61.63;103122.56;2095706;28;47077;-67
2022/01/12 02:37:08;;;;;;;;;55.60;44.80;;;;;5.56;61.51;103124.31;2095977;28;47858;-67
2022/01/12 02:40:48;;;;;;;;;60.40;46.40;;;;;5.55;61.54;103123.41;2105448;27;45602;-70
2022/01/12 02:41:49;;;;;;;;;54.80;44.60;;;;;5.55;61.95;103122.53;2105086;27;47408;-67
2022/01/12 02:43:02;;;;;;;;;54.40;46.40;;;;;5.55;61.54;103123.41;2095751;27;47068;-69
2022/01/12 02:54:34;;;;;;;;;54.20;46.20;;;;;5.54;61.57;103081.22;2105738;27;48015;-67
2022/01/12 02:55:35;;;;;;;;;55.00;45.75;;;;;5.54;61.85;103089.13;2105728;27;46408;-64
2022/01/12 02:56:36;;;;;;;;;58.00;45.00;;;;;5.54;61.93;103095.28;2105926;27;45739;-68
2022/01/12 02:57:37;;;;;;;;;54.50;45.75;;;;;5.54;61.74;103091.75;2105501;27;47191;-67
2022/01/12 02:58:40;;;;;;;;;58.60;47.60;;;;;5.53;61.39;103087.31;2105830;27;47973;-67
2022/01/12 03:00:35;;;;;;;;;58.20;47.00;;;;;5.54;62.13;103089.13;2106824;27;47704;-68
2022/01/12 03:02:30;;;;;;;;;55.00;41.80;;;;;5.55;62.06;103096.19;2091147;28;46261;-67
2022/01/12 03:03:36;;;;;;;;;54.60;44.40;;;;;5.56;61.74;103096.22;2103733;27;46363;-66
2022/01/12 03:04:38;;;;;;;;;54.80;45.20;;;;;5.56;62.12;103090.06;2096255;28;47693;-67
2022/01/12 03:05:54;;;;;;;;;54.00;42.40;;;;;5.56;61.79;103095.34;2096523;27;45403;-69
2022/01/12 03:07:04;;;;;;;;;55.20;42.60;;;;;5.56;61.71;103095.34;2096354;27;47990;-67
2022/01/12 03:08:12;;;;;;;;;46.80;39.40;;;;;5.56;61.82;103095.34;2097731;27;45420;-68
2022/01/12 03:09:13;;;;;;;;;54.20;42.40;;;;;5.55;62.06;103094.44;2105342;27;47178;-72
2022/01/12 03:10:14;;;;;;;;;47.60;40.60;;;;;5.55;61.70;103099.72;2096403;28;45461;-70
2022/01/12 03:11:17;;;;;;;;;51.75;42.00;;;;;5.55;61.82;103101.44;2096287;27;46007;-67
2022/01/12 03:12:20;;;;;;;;;46.20;38.80;;;;;5.53;61.99;103106.66;2105715;27;47646;-66
2022/01/12 03:13:22;;;;;;;;;45.60;38.40;;;;;5.55;61.62;103112.88;2105479;27;48680;-66
2022/01/12 03:14:22;;;;;;;;;36.40;29.00;;;;;5.54;61.73;103116.34;2105391;27;46295;-68
2022/01/12 03:15:23;;;;;;;;;46.50;39.00;;;;;5.54;61.27;103112.81;2105213;27;46715;-68
2022/01/12 03:16:26;;;;;;;;;45.50;39.00;;;;;5.53;61.64;103125.09;2105611;27;46093;-69
2022/01/12 03:17:27;;;;;;;;;52.20;41.00;;;;;5.54;61.59;103128.63;2096069;28;45732;-67
2022/01/12 03:18:27;;;;;;;;;42.00;38.75;;;;;5.53;61.51;103130.38;2096698;28;45701;-68
2022/01/12 03:19:28;;;;;;;;;42.50;37.25;;;;;5.53;61.77;103125.09;2096403;28;47318;-66
2022/01/12 03:20:28;;;;;;;;;45.00;40.25;;;;;5.51;61.49;103132.06;2096395;28;45498;-69
2022/01/12 03:21:32;;;;;;;;;49.25;41.75;;;;;5.53;61.57;103130.38;2096817;28;46517;-66
2022/01/12 03:22:33;;;;;;;;;51.60;41.80;;;;;5.53;61.39;103126.84;2100266;27;47077;-66
2022/01/12 03:23:34;;;;;;;;;47.00;36.50;;;;;5.51;61.93;103126.78;2096406;28;46907;-68
2022/01/12 03:24:34;;;;;;;;;45.25;38.75;;;;;5.52;61.32;103132.94;2096358;27;48326;-67
2022/01/12 03:25:35;;;;;;;;;50.50;39.75;;;;;5.52;61.63;103122.41;2105204;27;47760;-66
2022/01/12 03:26:36;;;;;;;;;40.75;37.50;;;;;5.50;61.35;103127.63;2105295;27;47531;-65
2022/01/12 03:27:37;;;;;;;;;50.50;40.25;;;;;5.51;61.51;103128.53;2105335;27;46174;-67
2022/01/12 03:28:40;;;;;;;;;46.00;40.60;;;;;5.50;61.56;103135.53;2105195;27;46075;-66
2022/01/12 03:29:43;;;;;;;;;54.20;42.80;;;;;5.49;61.50;103128.47;2105169;27;46946;-68
2022/01/12 03:31:27;;;;;;;;;54.40;40.00;;;;;5.49;61.99;103128.47;2105414;27;46260;-70
2022/01/12 03:32:11;;;;;;;;;45.40;39.00;;;;;5.50;61.95;103125.00;2099550;27;46600;-74
2022/01/12 03:33:34;;;;;;;;;45.40;39.80;;;;;5.48;61.89;103120.50;2105289;27;47319;-67
2022/01/12 03:34:36;;;;;;;;;48.40;42.00;;;;;5.48;61.72;103121.41;2105773;27;45547;-68
2022/01/12 03:35:50;;;;;;;;;49.40;42.20;;;;;5.49;62.05;103128.47;2105120;27;47289;-69
2022/01/12 03:38:19;;;;;;;;;40.80;35.60;;;;;5.51;62.18;103133.78;2096840;27;47404;-70
2022/01/12 03:39:15;;;;;;;;;42.60;38.60;;;;;5.51;61.75;103134.69;2100153;27;45816;-67
2022/01/12 03:40:15;;;;;;;;;48.75;42.00;;;;;5.50;61.68;103130.25;2105689;27;45507;-68
2022/01/12 03:41:16;;;;;;;;;42.25;38.50;;;;;5.50;62.00;103138.16;2105139;27;45469;-69
2022/01/12 03:42:19;;;;;;;;;52.60;43.20;;;;;5.50;62.22;103134.63;2096246;27;48185;-69
2022/01/12 03:43:19;;;;;;;;;48.40;39.40;;;;;5.51;62.22;103134.69;2087602;28;46375;-73
2022/01/12 03:44:20;;;;;;;;;46.75;40.75;;;;;5.51;61.73;103137.31;2096296;28;46562;-68
2022/01/12 03:45:21;;;;;;;;;51.50;43.50;;;;;5.51;61.70;103133.78;2105132;27;45327;-66
2022/01/12 03:46:26;;;;;;;;;44.00;40.00;;;;;5.52;62.09;103128.56;2105565;27;48255;-69
2022/01/12 03:47:27;;;;;;;;;51.00;39.80;;;;;5.52;61.70;103125.03;2105470;27;45491;-68
2022/01/12 03:48:27;;;;;;;;;55.25;44.00;;;;;5.51;62.21;103124.16;2105369;27;47833;-70
2022/01/12 03:49:28;;;;;;;;;47.25;41.25;;;;;5.52;62.37;103119.78;2104990;27;46002;-68
2022/01/12 03:50:29;;;;;;;;;48.50;41.25;;;;;5.52;62.19;103125.94;2105231;27;46581;-67
2022/01/12 03:51:29;;;;;;;;;51.00;41.75;;;;;5.53;62.27;103127.72;2095912;28;48348;-67
2022/01/12 03:52:30;;;;;;;;;55.25;41.75;;;;;5.54;62.00;103133.91;2096506;28;47112;-70
2022/01/12 03:53:30;;;;;;;;;48.00;38.50;;;;;5.54;61.87;103133.91;2104510;27;45547;-67
2022/01/12 03:54:31;;;;;;;;;49.00;42.25;;;;;5.55;62.35;103136.59;2105450;27;45430;-65
2022/01/12 03:55:32;;;;;;;;;54.00;42.75;;;;;5.56;61.53;103130.47;2095885;28;47996;-67
2022/01/12 03:56:33;;;;;;;;;51.20;40.40;;;;;5.57;62.20;103139.28;2087539;28;47529;-67
2022/01/12 03:57:34;;;;;;;;;54.00;41.00;;;;;5.56;61.79;103135.75;2096160;27;48097;-68
2022/01/12 03:58:34;;;;;;;;;55.75;45.25;;;;;5.54;61.83;103147.97;2104938;27;46205;-70
2022/01/12 03:59:35;;;;;;;;;45.75;42.00;;;;;5.54;61.80;103147.06;2105115;27;45521;-66
2022/01/12 04:00:36;;;;;;;;;44.75;39.75;;;;;5.53;62.18;103145.28;2105305;27;45285;-71
2022/01/12 04:01:37;;;;;;;;;49.80;40.80;;;;;5.53;62.18;103156.69;2095759;28;47478;-67
2022/01/12 04:02:39;;;;;;;;;52.00;42.50;;;;;5.53;62.26;103164.59;2096415;28;45434;-71
2022/01/12 04:03:44;;;;;;;;;48.80;39.60;;;;;5.54;61.76;103168.13;2105303;27;47349;-68
2022/01/12 04:05:10;;;;;;;;;45.80;38.80;;;;;5.55;61.72;103167.28;2105204;27;46587;-68
2022/01/12 04:08:51;;;;;;;;;54.20;42.60;;;;;5.54;62.26;103168.13;2079438;28;46484;-68
2022/01/12 04:09:53;;;;;;;;;48.20;39.80;;;;;5.53;61.68;103169.88;2101158;27;46566;-68
2022/01/12 04:10:57;;;;;;;;;53.40;42.60;;;;;5.52;61.96;103168.09;2100505;27;45353;-69
2022/01/12 04:11:58;;;;;;;;;50.00;41.80;;;;;5.52;62.33;103172.44;2095684;28;46991;-66
2022/01/12 04:12:59;;;;;;;;;49.25;41.75;;;;;5.54;62.18;103178.66;2096294;27;46887;-67
2022/01/12 04:14:01;;;;;;;;;54.00;42.60;;;;;5.53;62.36;103180.41;2096220;28;46230;-71
2022/01/12 04:15:01;;;;;;;;;50.50;44.25;;;;;5.52;62.00;103183.88;2096048;27;47304;-68
2022/01/12 04:16:05;;;;;;;;;55.50;43.00;;;;;5.53;61.92;103176.88;2096096;28;46229;-68
2022/01/12 04:17:06;;;;;;;;;54.40;43.40;;;;;5.50;62.28;103175.03;2088065;28;45773;-67
2022/01/12 04:18:07;;;;;;;;;51.00;43.00;;;;;5.52;61.93;103191.78;2096387;27;46277;-69
2022/01/12 04:19:07;;;;;;;;;52.25;42.00;;;;;5.52;62.01;103186.53;2105020;27;45961;-68
2022/01/12 04:20:08;;;;;;;;;50.50;39.75;;;;;5.52;62.39;103188.25;2105254;27;47030;-67
2022/01/12 04:21:09;;;;;;;;;51.00;44.00;;;;;5.52;62.41;103193.53;2104972;27;47303;-69
2022/01/12 04:23:30;;;;;;;;;49.40;40.80;;;;;5.53;62.22;103187.41;2104822;27;48214;-70
2022/01/12 04:24:31;;;;;;;;;54.80;43.40;;;;;5.52;62.32;103186.53;2096264;28;47850;-68
2022/01/12 04:25:31;;;;;;;;;37.00;35.00;;;;;5.53;62.51;103188.31;2095592;28;45753;-68
2022/01/12 04:26:32;;;;;;;;;49.00;41.00;;;;;5.52;62.40;103189.16;2105158;27;45669;-67
2022/01/12 04:27:33;;;;;;;;;55.75;44.00;;;;;5.52;62.23;103193.53;2099328;27;45783;-69
2022/01/12 04:28:33;;;;;;;;;64.25;46.25;;;;;5.52;62.22;103190.88;2099081;27;47324;-69
2022/01/12 04:29:33;;;;;;;;;50.25;40.75;;;;;5.50;62.01;103189.94;2104881;27;47041;-67
2022/01/12 04:30:35;;;;;;;;;61.25;47.00;;;;;5.51;62.31;103195.25;2105583;27;45353;-69
2022/01/12 04:31:37;;;;;;;;;54.60;43.40;;;;;5.51;62.48;103197.91;2095870;28;46560;-67
2022/01/12 04:32:41;;;;;;;;;56.80;43.80;;;;;5.51;62.21;103202.25;2096025;27;45405;-68
2022/01/12 04:33:43;;;;;;;;;46.00;39.20;;;;;5.50;62.27;103208.38;2095631;28;46391;-68
2022/01/12 04:34:44;;;;;;;;;53.40;43.20;;;;;5.49;62.29;103202.22;2096193;27;46122;-66
2022/01/12 04:35:49;;;;;;;;;50.75;42.00;;;;;5.49;62.60;103203.94;2105026;27;46156;-67
2022/01/12 04:36:49;;;;;;;;;57.20;46.60;;;;;5.49;62.21;103204.84;2104923;27;47766;-67
2022/01/12 04:37:51;;;;;;;;;47.00;38.75;;;;;5.49;62.60;103206.56;2104925;27;47998;-68
2022/01/12 04:38:51;;;;;;;;;49.20;39.60;;;;;5.49;62.33;103204.84;2104739;27;46545;-67
2022/01/12 04:39:52;;;;;;;;;44.50;38.75;;;;;5.49;62.59;103210.09;2099028;27;45455;-71
2022/01/12 04:40:53;;;;;;;;;48.75;36.00;;;;;5.48;62.30;103213.59;2105140;27;45412;-69
2022/01/12 04:41:54;;;;;;;;;47.20;40.40;;;;;5.50;62.48;103219.81;2095844;27;46348;-68
2022/01/12 04:42:56;;;;;;;;;49.75;41.25;;;;;5.49;62.35;103209.22;2095802;28;47229;-66
2022/01/12 04:43:57;;;;;;;;;60.40;44.20;;;;;5.48;62.17;103218.84;2095927;28;48160;-67
2022/01/12 04:45:14;;;;;;;;;29.00;22.75;;;;;5.48;61.79;103217.97;2087371;28;46225;-70
2022/01/12 04:47:29;;;;;;;;;54.00;43.50;;;;;5.47;62.46;103216.16;2104684;27;47764;-70
2022/01/12 04:48:48;;;;;;;;;44.40;40.40;;;;;5.49;62.44;103219.75;2095981;28;46790;-68
2022/01/12 04:49:48;;;;;;;;;52.40;43.20;;;;;5.48;62.26;103216.22;2098043;27;45615;-67
2022/01/12 04:50:51;;;;;;;;;55.00;42.75;;;;;5.49;62.17;103215.38;2104858;27;45703;-66
2022/01/12 04:51:52;;;;;;;;;54.00;43.60;;;;;5.49;62.40;103209.22;2096074;28;47496;-69
2022/01/12 04:52:53;;;;;;;;;51.00;42.75;;;;;5.50;62.04;103218.91;2101124;27;45950;-67
2022/01/12 04:53:54;;;;;;;;;52.00;41.25;;;;;5.50;62.03;103213.63;2104991;27;46184;-68
2022/01/12 04:54:55;;;;;;;;;45.50;38.50;;;;;5.49;62.64;103207.47;2104977;27;47611;-69
2022/01/12 04:55:55;;;;;;;;;53.80;42.80;;;;;5.51;62.53;103215.44;2087484;28;46260;-69
2022/01/12 04:56:56;;;;;;;;;54.50;43.00;;;;;5.49;62.56;103207.47;2087850;28;47319;-66
2022/01/12 04:57:56;;;;;;;;;50.00;41.75;;;;;5.50;61.91;103214.53;2104545;27;48075;-68
2022/01/12 04:58:57;;;;;;;;;54.50;44.25;;;;;5.50;62.34;103217.16;2095664;28;48126;-67
2022/01/12 05:00:09;;;;;;;;;53.00;41.75;;;;;5.50;62.05;103205.75;2095438;28;47269;-68
2022/01/12 05:01:21;;;;;;;;;55.40;45.20;;;;;5.49;62.12;103215.38;2095055;28;45783;-68
2022/01/12 05:06:47;;;;;;;;;56.20;45.20;;;;;5.46;62.53;103231.06;2105019;27;45489;-67
2022/01/12 05:08:09;;;;;;;;;56.60;43.60;;;;;5.45;62.00;103229.25;2103701;27;45639;-70
2022/01/12 05:09:40;;;;;;;;;48.40;41.40;;;;;5.45;62.17;103229.25;2099516;27;46205;-68
2022/01/12 05:13:15;;;;;;;;;50.40;41.80;;;;;5.44;62.28;103234.44;2104314;27;48047;-67
2022/01/12 05:14:16;;;;;;;;;40.50;36.00;;;;;5.45;62.52;103237.13;2095594;27;45756;-67
2022/01/12 05:15:25;;;;;;;;;56.75;42.00;;;;;5.45;62.37;103237.13;2095349;28;48351;-70
2022/01/12 05:16:26;;;;;;;;;44.00;37.60;;;;;5.45;62.18;103238.88;2104888;27;47894;-69
2022/01/12 05:17:28;;;;;;;;;53.80;42.80;;;;;5.45;62.50;103239.78;2100134;27;45339;-68
2022/01/12 05:18:29;;;;;;;;;49.40;40.80;;;;;5.46;61.89;103232.78;2101733;27;46254;-66
2022/01/12 05:19:30;;;;;;;;;43.00;38.60;;;;;5.45;62.05;103223.97;2112296;27;45760;-68
2022/01/12 05:20:30;;;;;;;;;49.75;40.75;;;;;5.45;62.38;103229.25;2104774;27;47700;-67
2022/01/12 05:21:31;;;;;;;;;44.75;40.25;;;;;5.45;62.02;103225.72;2104637;27;45349;-70
2022/01/12 05:22:32;;;;;;;;;51.00;41.75;;;;;5.44;62.06;103229.19;2104845;27;45479;-68
2022/01/12 05:23:32;;;;;;;;;48.25;39.75;;;;;5.44;62.00;103224.81;2104639;27;45438;-68
2022/01/12 05:24:33;;;;;;;;;49.25;40.00;;;;;5.43;62.35;103224.75;2104964;27;46810;-70
2022/01/12 05:25:33;;;;;;;;;45.25;39.25;;;;;5.43;62.50;103219.50;2100030;27;48033;-69
2022/01/12 05:26:34;;;;;;;;;41.75;38.50;;;;;5.43;62.33;103219.50;2096508;28;46156;-67
2022/01/12 05:27:35;;;;;;;;;50.00;39.20;;;;;5.42;62.39;103218.59;2101393;27;46446;-69
2022/01/12 05:28:40;;;;;;;;;48.00;40.25;;;;;5.40;62.07;103212.38;2103814;27;45634;-70
2022/01/12 05:29:40;;;;;;;;;57.80;42.60;;;;;5.40;62.27;103206.22;2103832;27;46422;-68
2022/01/12 05:30:41;;;;;;;;;45.50;38.75;;;;;5.39;62.46;103212.31;2104027;27;46610;-68
2022/01/12 05:31:41;;;;;;;;;52.50;40.50;;;;;5.36;62.28;103205.19;2104439;27;46427;-69
2022/01/12 05:32:43;;;;;;;;;45.50;37.75;;;;;5.37;62.41;103203.47;2104796;27;45546;-70
2022/01/12 05:33:47;;;;;;;;;46.00;38.00;;;;;5.37;61.92;103211.38;2104166;27;48375;-67
2022/01/12 05:34:48;;;;;;;;;42.80;38.00;;;;;5.36;62.05;103205.19;2104622;27;47729;-70
2022/01/12 05:35:48;;;;;;;;;54.75;42.00;;;;;5.37;62.28;103204.38;2104441;27;45423;-67
2022/01/12 05:36:49;;;;;;;;;54.00;40.50;;;;;5.37;62.13;103203.47;2104846;27;45563;-71
2022/01/12 05:37:50;;;;;;;;;45.50;39.75;;;;;5.37;62.09;103204.38;2104732;27;46192;-70
2022/01/12 05:38:51;;;;;;;;;44.75;38.25;;;;;5.37;62.33;103201.72;2104329;27;48375;-68
2022/01/12 05:39:51;;;;;;;;;45.00;37.40;;;;;5.38;62.34;103200.00;2090315;27;46749;-66
2022/01/12 05:40:56;;;;;;;;;47.00;40.00;;;;;5.38;62.64;103211.41;2103774;27;47897;-68
2022/01/12 05:41:57;;;;;;;;;42.80;39.40;;;;;5.37;62.29;103204.38;2103447;27;47630;-67
2022/01/12 05:43:00;;;;;;;;;54.75;43.00;;;;;5.38;62.21;103214.06;2104296;27;46158;-70
2022/01/12 05:44:05;;;;;;;;;42.80;38.00;;;;;5.37;62.50;103209.63;2104328;27;45854;-69
2022/01/12 05:45:07;;;;;;;;;49.00;39.40;;;;;5.38;62.63;103206.16;2104279;27;48765;-67
2022/01/12 05:46:10;;;;;;;;;40.20;36.40;;;;;5.38;62.49;103206.16;2103886;27;45681;-69
2022/01/12 05:47:29;;;;;;;;;50.20;42.00;;;;;5.39;62.56;103205.31;2095743;27;47377;-67
2022/01/12 05:49:49;;;;;;;;;55.60;40.00;;;;;5.38;62.39;103200.88;2104357;27;45463;-76
2022/01/12 05:50:51;;;;;;;;;54.50;41.50;;;;;5.39;62.45;103205.31;2104809;27;45341;-70
2022/01/12 05:51:51;;;;;;;;;52.20;40.20;;;;;5.38;62.68;103200.88;2103837;27;45965;-68
2022/01/12 05:52:52;;;;;;;;;48.25;39.75;;;;;5.37;62.78;103207.00;2104034;27;45694;-71
2022/01/12 05:53:54;;;;;;;;;40.75;36.00;;;;;5.38;62.60;103207.88;2104341;27;45806;-67
2022/01/12 05:54:54;;;;;;;;;47.20;39.00;;;;;5.38;62.36;103211.41;2104426;27;47394;-69
2022/01/12 05:55:55;;;;;;;;;50.50;42.25;;;;;5.37;62.35;103212.25;2104414;27;46923;-69
2022/01/12 05:56:56;;;;;;;;;49.00;42.00;;;;;5.36;62.48;103204.31;2104627;27;46994;-69
2022/01/12 05:57:57;;;;;;;;;46.20;37.00;;;;;5.38;62.50;103214.06;2104168;27;45896;-69
2022/01/12 05:58:57;;;;;;;;;52.50;42.50;;;;;5.38;62.48;103211.41;2103979;27;45895;-67
2022/01/12 05:59:59;;;;;;;;;52.25;38.75;;;;;5.37;62.58;103212.25;2104044;27;46518;-69
2022/01/12 06:01:00;;;;;;;;;53.00;39.80;;;;;5.38;62.26;103219.31;2097776;27;47477;-76
2022/01/12 06:02:02;;;;;;;;;40.75;35.75;;;;;5.37;62.51;103224.53;2096556;27;46512;-69